createdAt,value
2022-07-31T00:00:27.788Z,39.53
2022-07-31T00:02:27.857Z,39.55
2022-07-31T00:04:27.911Z,39.59
2022-07-31T00:07:43.890Z,39.27
2022-07-31T00:09:53.010Z,39.88
2022-07-31T00:11:45.111Z,39.95
2022-07-31T00:13:58.029Z,39.98
2022-07-31T00:15:45.357Z,40.02
2022-07-31T00:17:44.450Z,40.01
2022-07-31T00:19:44.546Z,40.02
2022-07-31T00:21:44.687Z,40.04
2022-07-31T00:23:44.813Z,40.09
2022-07-31T00:25:44.892Z,40.15
2022-07-31T00:27:45.050Z,40.24
2022-07-31T00:29:45.166Z,40.31
2022-07-31T00:31:45.346Z,40.35
2022-07-31T00:33:45.639Z,40.36
2022-07-31T00:35:45.548Z,40.41
2022-07-31T00:37:47.681Z,40.43
2022-07-31T00:39:45.799Z,40.46
2022-07-31T00:41:45.884Z,40.46
2022-07-31T00:43:46.033Z,40.52
2022-07-31T00:45:46.102Z,40.57
2022-07-31T00:47:46.266Z,40.63
2022-07-31T00:49:46.389Z,40.68
2022-07-31T00:51:46.485Z,40.75
2022-07-31T00:53:46.645Z,40.78
2022-07-31T00:55:52.015Z,40.80
2022-07-31T00:57:47.887Z,40.85
2022-07-31T00:59:47.005Z,40.91
2022-07-31T01:01:47.128Z,40.91
2022-07-31T01:03:47.286Z,40.92
2022-07-31T01:05:47.397Z,40.94
2022-07-31T01:07:47.560Z,40.97
2022-07-31T01:09:47.676Z,40.99
2022-07-31T01:11:47.763Z,41.03
2022-07-31T01:13:47.905Z,41.09
2022-07-31T01:15:47.998Z,41.14
2022-07-31T01:17:48.150Z,41.21
2022-07-31T01:19:48.302Z,41.22
2022-07-31T01:21:48.394Z,41.29
2022-07-31T01:23:51.079Z,41.34
2022-07-31T01:25:49.703Z,41.40
2022-07-31T01:27:49.240Z,41.45
2022-07-31T01:29:48.906Z,41.53
2022-07-31T01:31:49.025Z,41.58
2022-07-31T01:33:49.178Z,41.64
2022-07-31T01:35:49.314Z,41.70
2022-07-31T01:37:49.435Z,41.76
2022-07-31T01:39:49.591Z,41.82
2022-07-31T01:41:49.662Z,41.93
2022-07-31T01:43:49.833Z,42.00
2022-07-31T01:45:49.982Z,42.07
2022-07-31T01:47:50.069Z,42.15
2022-07-31T01:49:50.246Z,42.23
2022-07-31T01:51:50.363Z,42.28
2022-07-31T01:53:50.485Z,42.34
2022-07-31T01:56:01.769Z,42.44
2022-07-31T01:57:51.742Z,42.51
2022-07-31T01:59:50.875Z,42.54
2022-07-31T02:01:51.523Z,42.60
2022-07-31T02:03:56.098Z,42.63
2022-07-31T02:05:52.235Z,42.68
2022-07-31T02:07:51.366Z,42.72
2022-07-31T02:09:57.802Z,42.79
2022-07-31T02:11:54.869Z,42.85
2022-07-31T02:13:51.784Z,42.87
2022-07-31T02:15:51.891Z,42.89
2022-07-31T02:17:51.987Z,42.90
2022-07-31T02:19:57.822Z,42.96
2022-07-31T02:21:53.269Z,43.06
2022-07-31T02:23:52.394Z,43.13
2022-07-31T02:25:52.519Z,43.18
2022-07-31T02:27:53.627Z,43.26
2022-07-31T02:29:53.769Z,43.34
2022-07-31T02:32:03.183Z,43.39
2022-07-31T02:33:54.067Z,43.44
2022-07-31T02:35:53.151Z,43.49
2022-07-31T02:37:53.313Z,43.51
2022-07-31T02:39:53.436Z,43.54
2022-07-31T02:41:53.599Z,43.58
2022-07-31T02:43:53.716Z,43.64
2022-07-31T02:45:53.861Z,43.69
2022-07-31T02:47:53.991Z,43.75
2022-07-31T02:49:54.107Z,43.80
2022-07-31T02:51:54.207Z,43.85
2022-07-31T02:53:54.354Z,43.90
2022-07-31T02:55:54.467Z,43.97
2022-07-31T02:57:54.628Z,44.00
2022-07-31T02:59:54.711Z,44.04
2022-07-31T03:01:54.851Z,44.10
2022-07-31T03:03:55.012Z,44.16
2022-07-31T03:05:55.140Z,44.19
2022-07-31T03:07:55.244Z,44.24
2022-07-31T03:09:55.349Z,44.25
2022-07-31T03:11:55.450Z,44.26
2022-07-31T03:13:55.604Z,44.31
2022-07-31T03:15:55.711Z,44.37
2022-07-31T03:17:55.813Z,44.41
2022-07-31T03:19:55.940Z,44.44
2022-07-31T03:21:56.058Z,44.46
2022-07-31T03:23:56.214Z,44.47
2022-07-31T03:25:56.307Z,44.50
2022-07-31T03:27:56.971Z,44.56
2022-07-31T03:29:56.616Z,44.58
2022-07-31T03:31:56.745Z,44.65
2022-07-31T03:33:56.900Z,44.69
2022-07-31T03:35:56.980Z,44.75
2022-07-31T03:37:57.084Z,44.77
2022-07-31T03:39:57.229Z,44.81
2022-07-31T03:41:57.339Z,44.86
2022-07-31T03:43:57.489Z,44.91
2022-07-31T03:45:57.597Z,44.94
2022-07-31T03:47:57.719Z,44.95
2022-07-31T03:49:57.857Z,44.98
2022-07-31T03:51:57.995Z,44.95
2022-07-31T03:53:58.166Z,44.94
2022-07-31T03:55:58.314Z,44.92
2022-07-31T03:57:58.396Z,44.89
2022-07-31T03:59:58.510Z,44.88
2022-07-31T04:01:58.983Z,44.86
2022-07-31T04:03:58.678Z,44.83
2022-07-31T04:05:58.856Z,44.81
2022-07-31T04:07:58.950Z,44.84
2022-07-31T04:09:59.053Z,44.91
2022-07-31T04:11:59.195Z,44.98
2022-07-31T04:13:59.296Z,45.04
2022-07-31T04:15:59.716Z,45.11
2022-07-31T04:17:59.496Z,45.14
2022-07-31T04:19:59.682Z,45.17
2022-07-31T04:21:59.774Z,45.17
2022-07-31T04:23:59.920Z,45.20
2022-07-31T04:26:00.031Z,45.20
2022-07-31T04:28:00.112Z,45.25
2022-07-31T04:30:00.279Z,45.28
2022-07-31T04:32:00.561Z,45.32
2022-07-31T04:34:00.483Z,45.32
2022-07-31T04:36:00.603Z,45.28
2022-07-31T04:38:00.768Z,45.18
2022-07-31T04:40:00.896Z,45.12
2022-07-31T04:42:01.514Z,45.02
2022-07-31T04:44:01.217Z,44.88
2022-07-31T04:46:01.302Z,44.71
2022-07-31T04:48:01.454Z,44.57
2022-07-31T04:50:01.573Z,44.48
2022-07-31T04:52:02.084Z,44.41
2022-07-31T04:54:01.838Z,44.37
2022-07-31T04:56:02.008Z,44.31
2022-07-31T04:58:02.100Z,44.26
2022-07-31T05:00:02.297Z,44.27
2022-07-31T05:02:02.706Z,44.29
2022-07-31T05:04:02.532Z,44.28
2022-07-31T05:06:02.651Z,44.28
2022-07-31T05:08:02.786Z,44.27
2022-07-31T05:10:02.947Z,44.26
2022-07-31T05:12:03.452Z,44.27
2022-07-31T05:14:03.214Z,44.28
2022-07-31T05:16:03.370Z,44.33
2022-07-31T05:18:03.500Z,44.36
2022-07-31T05:20:03.669Z,44.34
2022-07-31T05:22:03.912Z,44.34
2022-07-31T05:24:03.916Z,44.32
2022-07-31T05:26:04.101Z,44.30
2022-07-31T05:28:04.224Z,44.33
2022-07-31T05:30:05.378Z,44.44
2022-07-31T05:32:04.469Z,44.57
2022-07-31T05:34:04.619Z,44.71
2022-07-31T05:36:04.790Z,44.79
2022-07-31T05:38:04.892Z,44.83
2022-07-31T05:40:06.024Z,44.90
2022-07-31T05:42:05.479Z,44.97
2022-07-31T05:44:05.276Z,45.01
2022-07-31T05:46:05.440Z,45.05
2022-07-31T05:48:05.556Z,45.07
2022-07-31T05:50:05.688Z,45.03
2022-07-31T05:52:06.292Z,44.99
2022-07-31T05:54:05.948Z,44.92
2022-07-31T05:56:06.118Z,44.83
2022-07-31T05:58:06.239Z,44.75
2022-07-31T06:01:03.727Z,44.10
2022-07-31T06:03:03.812Z,44.60
2022-07-31T06:05:03.953Z,44.49
2022-07-31T06:07:04.229Z,44.50
2022-07-31T06:09:05.067Z,44.49
2022-07-31T06:11:04.381Z,44.49
2022-07-31T06:13:04.507Z,44.40
2022-07-31T06:15:04.673Z,44.22
2022-07-31T06:17:04.807Z,43.96
2022-07-31T06:19:04.937Z,43.56
2022-07-31T06:21:05.079Z,43.19
2022-07-31T06:23:19.977Z,42.90
2022-07-31T06:25:06.371Z,42.67
2022-07-31T06:27:05.521Z,42.42
2022-07-31T06:29:05.625Z,42.09
2022-07-31T06:31:05.800Z,41.39
2022-07-31T06:33:08.218Z,40.62
2022-07-31T06:35:06.036Z,39.97
2022-07-31T06:37:06.212Z,39.11
2022-07-31T06:39:06.301Z,36.88
2022-07-31T06:41:06.496Z,37.86
2022-07-31T06:43:07.023Z,38.16
2022-07-31T06:45:06.719Z,37.77
2022-07-31T06:47:06.900Z,37.44
2022-07-31T06:49:09.113Z,37.76
2022-07-31T06:53:08.266Z,37.60
2022-07-31T06:55:07.400Z,36.39
2022-07-31T06:57:07.528Z,36.02
2022-07-31T06:59:07.672Z,35.66
2022-07-31T07:01:07.839Z,34.62
2022-07-31T07:03:08.032Z,33.35
2022-07-31T07:05:08.107Z,31.12
2022-07-31T07:07:08.237Z,32.65
2022-07-31T07:09:08.408Z,33.36
2022-07-31T07:11:12.133Z,33.57
2022-07-31T07:13:08.686Z,33.83
2022-07-31T07:15:08.776Z,33.85
2022-07-31T07:17:08.920Z,33.67
2022-07-31T07:19:09.057Z,34.00
2022-07-31T07:21:09.177Z,34.11
2022-07-31T07:23:09.374Z,33.59
2022-07-31T07:25:09.509Z,32.66
2022-07-31T07:27:09.609Z,33.54
2022-07-31T07:29:09.712Z,34.08
2022-07-31T07:31:09.869Z,34.47
2022-07-31T07:33:10.058Z,34.69
2022-07-31T07:35:10.160Z,34.81
2022-07-31T07:37:10.225Z,34.93
2022-07-31T07:39:10.389Z,34.99
2022-07-31T07:41:10.497Z,34.96
2022-07-31T07:43:10.659Z,34.69
2022-07-31T07:45:10.807Z,34.73
2022-07-31T07:47:10.949Z,34.67
2022-07-31T07:49:11.098Z,34.62
2022-07-31T07:51:11.152Z,34.72
2022-07-31T07:53:11.321Z,34.88
2022-07-31T07:55:11.503Z,35.03
2022-07-31T07:57:11.573Z,35.21
2022-07-31T07:59:14.952Z,35.44
2022-07-31T08:01:11.911Z,35.68
2022-07-31T08:03:49.212Z,35.87
2022-07-31T08:05:13.134Z,36.04
2022-07-31T08:07:12.241Z,36.11
2022-07-31T08:09:12.345Z,36.07
2022-07-31T08:11:17.296Z,35.99
2022-07-31T08:13:13.636Z,35.90
2022-07-31T08:15:12.768Z,35.74
2022-07-31T08:17:12.884Z,35.54
2022-07-31T08:19:13.132Z,35.47
2022-07-31T08:21:13.176Z,35.44
2022-07-31T08:23:13.301Z,35.48
2022-07-31T08:25:15.309Z,35.51
2022-07-31T08:27:13.591Z,35.58
2022-07-31T08:29:13.691Z,35.62
2022-07-31T08:31:13.826Z,35.59
2022-07-31T08:33:13.965Z,35.43
2022-07-31T08:35:15.209Z,35.22
2022-07-31T08:37:52.364Z,35.01
2022-07-31T08:39:17.563Z,34.87
2022-07-31T08:41:15.499Z,34.81
2022-07-31T08:43:59.599Z,34.80
2022-07-31T08:45:15.797Z,34.83
2022-07-31T08:47:14.881Z,34.95
2022-07-31T08:49:15.070Z,34.98
2022-07-31T08:51:15.180Z,34.92
2022-07-31T08:53:15.349Z,34.77
2022-07-31T08:55:24.587Z,34.55
2022-07-31T08:57:16.661Z,34.12
2022-07-31T08:59:15.742Z,33.50
2022-07-31T09:01:15.998Z,33.02
2022-07-31T09:03:16.084Z,32.56
2022-07-31T09:05:16.246Z,32.66
2022-07-31T09:07:16.388Z,32.91
2022-07-31T09:09:16.417Z,33.11
2022-07-31T09:11:16.599Z,33.24
2022-07-31T09:13:16.740Z,33.36
2022-07-31T09:15:16.845Z,33.25
2022-07-31T09:17:16.910Z,33.00
2022-07-31T09:19:52.786Z,32.79
2022-07-31T09:21:18.226Z,32.67
2022-07-31T09:23:17.350Z,32.70
2022-07-31T09:25:17.611Z,32.89
2022-07-31T09:27:17.693Z,33.10
2022-07-31T09:29:18.165Z,33.23
2022-07-31T09:31:18.043Z,33.39
2022-07-31T09:33:18.072Z,33.58
2022-07-31T09:35:18.332Z,33.74
2022-07-31T09:37:18.363Z,33.82
2022-07-31T09:39:20.576Z,33.87
2022-07-31T09:41:56.398Z,33.97
2022-07-31T09:43:19.726Z,34.02
2022-07-31T09:45:18.863Z,33.99
2022-07-31T09:47:18.982Z,33.85
2022-07-31T09:49:19.228Z,33.78
2022-07-31T09:51:19.256Z,33.62
2022-07-31T09:53:19.962Z,33.55
2022-07-31T09:55:20.433Z,33.43
2022-07-31T09:57:19.793Z,33.36
2022-07-31T09:59:19.957Z,33.28
2022-07-31T10:01:19.982Z,33.24
2022-07-31T10:03:20.045Z,33.11
2022-07-31T10:05:20.238Z,32.82
2022-07-31T10:07:31.510Z,32.55
2022-07-31T10:09:21.465Z,31.88
2022-07-31T10:11:20.690Z,31.26
2022-07-31T10:13:20.754Z,30.47
2022-07-31T10:15:21.046Z,30.07
2022-07-31T10:17:21.066Z,29.65
2022-07-31T10:19:21.164Z,29.08
2022-07-31T10:21:21.432Z,28.32
2022-07-31T10:23:21.462Z,26.06
2022-07-31T10:25:21.577Z,26.14
2022-07-31T10:27:21.720Z,26.01
2022-07-31T10:29:21.874Z,25.62
2022-07-31T10:31:22.020Z,24.21
2022-07-31T10:33:43.124Z,24.14
2022-07-31T10:35:23.262Z,25.03
2022-07-31T10:37:22.644Z,25.54
2022-07-31T10:39:22.594Z,25.77
2022-07-31T10:41:22.768Z,25.57
2022-07-31T10:43:22.874Z,25.49
2022-07-31T10:45:23.546Z,25.54
2022-07-31T10:47:23.086Z,25.48
2022-07-31T10:49:23.287Z,25.28
2022-07-31T10:51:23.309Z,24.59
2022-07-31T10:53:51.318Z,24.68
2022-07-31T10:55:24.609Z,24.79
2022-07-31T10:57:23.822Z,25.15
2022-07-31T10:59:23.826Z,25.44
2022-07-31T11:01:23.985Z,25.49
2022-07-31T11:03:24.158Z,25.61
2022-07-31T11:05:24.237Z,25.85
2022-07-31T11:07:24.396Z,25.74
2022-07-31T11:09:24.823Z,25.95
2022-07-31T11:11:26.247Z,26.20
2022-07-31T11:13:33.362Z,26.51
2022-07-31T11:15:25.903Z,26.62
2022-07-31T11:18:21.916Z,26.35
2022-07-31T11:19:26.184Z,25.63
2022-07-31T11:21:37.998Z,24.40
2022-07-31T11:23:26.507Z,24.55
2022-07-31T11:25:25.613Z,24.44
2022-07-31T11:27:25.761Z,23.53
2022-07-31T11:30:00.249Z,23.90
2022-07-31T11:31:27.038Z,24.45
2022-07-31T11:33:26.334Z,24.75
2022-07-31T11:35:27.338Z,24.27
2022-07-31T11:37:26.519Z,23.65
2022-07-31T11:39:32.796Z,23.48
2022-07-31T11:41:27.715Z,23.75
2022-07-31T11:43:26.829Z,24.16
2022-07-31T11:45:26.990Z,23.49
2022-07-31T11:47:28.139Z,23.51
2022-07-31T11:49:48.194Z,23.93
2022-07-31T11:51:28.400Z,24.30
2022-07-31T11:53:27.553Z,24.60
2022-07-31T11:55:27.660Z,24.80
2022-07-31T11:57:27.771Z,25.05
2022-07-31T11:59:46.026Z,25.34
2022-07-31T12:01:29.159Z,25.44
2022-07-31T12:03:28.175Z,25.64
2022-07-31T12:05:38.618Z,25.62
2022-07-31T12:07:29.394Z,25.60
2022-07-31T12:10:00.787Z,25.58
2022-07-31T12:11:29.735Z,25.06
2022-07-31T12:13:28.807Z,24.27
2022-07-31T12:15:29.080Z,24.24
2022-07-31T12:17:29.146Z,23.82
2022-07-31T12:19:29.232Z,24.21
2022-07-31T12:21:29.403Z,24.45
2022-07-31T12:23:41.029Z,24.71
2022-07-31T12:25:30.635Z,24.08
2022-07-31T12:27:29.852Z,23.98
2022-07-31T12:29:29.931Z,24.07
2022-07-31T12:31:30.041Z,24.34
2022-07-31T12:33:30.305Z,24.57
2022-07-31T12:35:38.426Z,24.83
2022-07-31T12:37:31.466Z,24.53
2022-07-31T12:39:50.766Z,25.03
2022-07-31T12:41:32.066Z,24.23
2022-07-31T12:43:30.782Z,24.27
2022-07-31T12:45:30.900Z,24.96
2022-07-31T12:47:31.103Z,24.52
2022-07-31T12:49:31.259Z,25.02
2022-07-31T12:51:45.012Z,25.58
2022-07-31T12:53:32.463Z,25.57
2022-07-31T12:55:31.551Z,25.55
2022-07-31T12:57:31.799Z,25.04
2022-07-31T12:59:31.941Z,24.45
2022-07-31T13:01:32.034Z,24.42
2022-07-31T13:03:38.943Z,24.89
2022-07-31T13:05:33.319Z,25.08
2022-07-31T13:07:32.413Z,24.81
2022-07-31T13:09:32.516Z,24.87
2022-07-31T13:11:46.717Z,24.55
2022-07-31T13:13:34.478Z,24.96
2022-07-31T13:15:33.011Z,25.33
2022-07-31T13:17:33.003Z,25.53
2022-07-31T13:19:33.177Z,25.52
2022-07-31T13:21:47.991Z,24.72
2022-07-31T13:23:34.462Z,24.42
2022-07-31T13:25:33.498Z,24.21
2022-07-31T13:27:33.770Z,23.71
2022-07-31T13:29:33.835Z,23.86
2022-07-31T13:31:33.985Z,24.01
2022-07-31T13:33:34.019Z,24.25
2022-07-31T13:35:34.168Z,24.17
2022-07-31T13:37:34.290Z,24.11
2022-07-31T13:39:34.463Z,24.10
2022-07-31T13:41:34.733Z,24.84
2022-07-31T13:43:34.733Z,24.89
2022-07-31T13:45:34.817Z,24.36
2022-07-31T13:47:51.826Z,24.51
2022-07-31T13:49:36.054Z,25.00
2022-07-31T13:51:35.186Z,25.37
2022-07-31T13:53:35.291Z,25.73
2022-07-31T13:55:35.422Z,25.86
2022-07-31T13:57:35.640Z,26.05
2022-07-31T13:59:35.744Z,26.12
2022-07-31T14:02:13.600Z,26.15
2022-07-31T14:03:37.102Z,26.16
2022-07-31T14:05:40.193Z,25.88
2022-07-31T14:07:45.680Z,25.55
2022-07-31T14:09:37.355Z,25.18
2022-07-31T14:11:36.430Z,25.34
2022-07-31T14:13:42.422Z,25.72
2022-07-31T14:15:37.764Z,26.09
2022-07-31T14:17:36.892Z,26.31
2022-07-31T14:19:42.056Z,26.52
2022-07-31T14:21:38.146Z,26.60
2022-07-31T14:23:40.705Z,26.69
2022-07-31T14:25:37.392Z,26.22
2022-07-31T14:27:37.567Z,26.17
2022-07-31T14:29:37.655Z,26.45
2022-07-31T14:31:37.783Z,26.78
2022-07-31T14:33:37.925Z,26.88
2022-07-31T14:35:38.176Z,26.49
2022-07-31T14:37:38.238Z,27.00
2022-07-31T14:39:42.616Z,27.42
2022-07-31T14:41:38.487Z,27.70
2022-07-31T14:43:38.743Z,27.94
2022-07-31T14:45:51.021Z,28.13
2022-07-31T14:47:39.958Z,28.22
2022-07-31T14:50:06.582Z,28.20
2022-07-31T14:51:40.195Z,27.87
2022-07-31T14:53:39.649Z,27.92
2022-07-31T14:55:39.526Z,27.91
2022-07-31T14:57:39.662Z,27.81
2022-07-31T14:59:39.763Z,27.14
2022-07-31T15:01:39.947Z,27.16
2022-07-31T15:03:39.978Z,27.54
2022-07-31T15:06:40.762Z,27.80
2022-07-31T15:07:46.520Z,27.88
2022-07-31T15:09:41.397Z,27.99
2022-07-31T15:12:00.356Z,28.09
2022-07-31T15:13:41.687Z,28.21
2022-07-31T15:15:40.779Z,28.37
2022-07-31T15:17:40.939Z,28.54
2022-07-31T15:19:41.066Z,28.68
2022-07-31T15:21:41.151Z,28.76
2022-07-31T15:23:42.285Z,28.80
2022-07-31T15:25:41.441Z,28.84
2022-07-31T15:27:41.566Z,28.94
2022-07-31T15:30:00.650Z,29.00
2022-07-31T15:31:42.871Z,29.05
2022-07-31T15:33:42.032Z,29.17
2022-07-31T15:35:42.370Z,29.33
2022-07-31T15:37:42.271Z,29.45
2022-07-31T15:39:42.412Z,29.56
2022-07-31T15:41:43.524Z,29.67
2022-07-31T15:43:42.785Z,29.85
2022-07-31T15:45:42.833Z,30.00
2022-07-31T15:47:43.033Z,30.13
2022-07-31T15:49:43.875Z,30.21
2022-07-31T15:51:43.519Z,30.24
2022-07-31T15:53:43.412Z,30.15
2022-07-31T15:55:43.483Z,30.08
2022-07-31T15:57:43.666Z,30.08
2022-07-31T15:59:43.730Z,30.12
2022-07-31T16:01:43.868Z,30.24
2022-07-31T16:03:50.566Z,30.34
2022-07-31T16:05:45.135Z,30.43
2022-07-31T16:08:30.530Z,30.48
2022-07-31T16:10:01.011Z,30.45
2022-07-31T16:12:05.421Z,30.40
2022-07-31T16:13:45.655Z,30.42
2022-07-31T16:15:45.346Z,30.06
2022-07-31T16:17:44.953Z,29.80
2022-07-31T16:19:45.123Z,29.83
2022-07-31T16:21:45.176Z,30.26
2022-07-31T16:23:45.367Z,30.58
2022-07-31T16:25:45.488Z,30.42
2022-07-31T16:27:45.569Z,30.39
2022-07-31T16:29:59.908Z,30.37
2022-07-31T16:31:47.189Z,30.32
2022-07-31T16:33:50.610Z,30.23
2022-07-31T16:35:47.121Z,30.18
2022-07-31T16:37:51.164Z,30.33
2022-07-31T16:39:47.351Z,30.61
2022-07-31T16:41:54.321Z,30.66
2022-07-31T16:43:51.652Z,30.67
2022-07-31T16:45:46.743Z,31.06
2022-07-31T16:47:51.609Z,31.34
2022-07-31T16:49:48.057Z,31.57
2022-07-31T16:51:47.252Z,31.76
2022-07-31T16:54:13.153Z,31.94
2022-07-31T16:56:00.554Z,32.04
2022-07-31T16:57:48.587Z,32.12
2022-07-31T16:59:57.812Z,32.17
2022-07-31T17:01:53.881Z,32.26
2022-07-31T17:04:02.452Z,32.30
2022-07-31T17:05:48.960Z,32.35
2022-07-31T17:07:48.198Z,32.47
2022-07-31T17:09:48.218Z,32.48
2022-07-31T17:11:48.371Z,32.34
2022-07-31T17:13:48.442Z,32.04
2022-07-31T17:15:48.738Z,32.26
2022-07-31T17:17:48.720Z,32.51
2022-07-31T17:19:48.886Z,32.69
2022-07-31T17:21:49.937Z,32.93
2022-07-31T17:23:51.026Z,33.07
2022-07-31T17:25:49.191Z,33.24
2022-07-31T17:27:49.341Z,33.28
2022-07-31T17:29:49.419Z,33.42
2022-07-31T17:31:49.555Z,33.47
2022-07-31T17:33:59.585Z,33.56
2022-07-31T17:35:50.841Z,33.73
2022-07-31T17:37:49.989Z,33.79
2022-07-31T17:39:50.267Z,33.86
2022-07-31T17:41:50.276Z,33.91
2022-07-31T17:43:53.121Z,34.02
2022-07-31T17:45:59.273Z,34.16
2022-07-31T17:48:03.689Z,34.33
2022-07-31T17:49:51.740Z,34.58
2022-07-31T17:51:58.825Z,34.74
2022-07-31T17:53:55.145Z,34.83
2022-07-31T17:55:52.152Z,34.87
2022-07-31T17:57:51.312Z,34.93
2022-07-31T17:59:51.438Z,34.98
2022-07-31T18:01:52.269Z,35.01
2022-07-31T18:03:51.635Z,35.09
2022-07-31T18:05:51.727Z,35.10
2022-07-31T18:07:52.053Z,35.14
2022-07-31T18:09:52.006Z,35.21
2022-07-31T18:11:52.092Z,35.35
2022-07-31T18:13:54.166Z,35.43
2022-07-31T18:15:52.304Z,35.58
2022-07-31T18:17:52.394Z,35.76
2022-07-31T18:19:52.553Z,35.85
2022-07-31T18:21:52.676Z,35.93
2022-07-31T18:23:52.796Z,36.07
2022-07-31T18:25:52.925Z,36.11
2022-07-31T18:27:53.057Z,36.15
2022-07-31T18:29:55.969Z,36.44
2022-07-31T18:31:53.371Z,36.56
2022-07-31T18:33:53.538Z,36.61
2022-07-31T18:35:53.648Z,36.68
2022-07-31T18:37:53.828Z,36.76
2022-07-31T18:39:53.920Z,36.84
2022-07-31T18:41:54.082Z,36.97
2022-07-31T18:43:54.119Z,37.06
2022-07-31T18:45:54.275Z,37.16
2022-07-31T18:47:54.392Z,37.29
2022-07-31T18:51:02.437Z,37.38
2022-07-31T18:51:55.668Z,37.51
2022-07-31T18:53:54.976Z,37.61
2022-07-31T18:55:54.873Z,37.68
2022-07-31T18:57:54.991Z,37.72
2022-07-31T18:59:55.056Z,37.85
2022-07-31T19:01:55.626Z,37.90
2022-07-31T19:03:55.332Z,37.94
2022-07-31T19:05:55.495Z,38.07
2022-07-31T19:07:55.595Z,38.13
2022-07-31T19:09:55.724Z,38.26
2022-07-31T19:11:58.661Z,38.33
2022-07-31T19:13:55.948Z,38.39
2022-07-31T19:15:56.052Z,38.47
2022-07-31T19:17:58.478Z,38.60
2022-07-31T19:20:02.136Z,38.73
2022-07-31T19:21:57.422Z,38.79
2022-07-31T19:23:56.559Z,38.86
2022-07-31T19:26:03.449Z,38.88
2022-07-31T19:27:57.769Z,39.00
2022-07-31T19:29:56.944Z,39.08
2022-07-31T19:31:59.574Z,39.07
2022-07-31T19:33:57.189Z,39.11
2022-07-31T19:36:01.849Z,39.23
2022-07-31T19:37:58.445Z,39.38
2022-07-31T19:39:58.058Z,39.42
2022-07-31T19:42:21.540Z,39.41
2022-07-31T19:43:59.159Z,39.42
2022-07-31T19:46:10.407Z,39.43
2022-07-31T19:47:59.411Z,39.50
2022-07-31T19:49:58.327Z,39.53
2022-07-31T19:51:58.536Z,39.54
2022-07-31T19:53:58.606Z,39.57
2022-07-31T19:55:58.649Z,39.61
2022-07-31T19:57:58.740Z,39.64
2022-07-31T19:59:58.934Z,39.69
2022-07-31T20:01:59.014Z,39.74
2022-07-31T20:03:59.205Z,39.81
2022-07-31T20:05:59.262Z,39.91
2022-07-31T20:07:59.475Z,40.00
2022-07-31T20:09:59.543Z,40.08
2022-07-31T20:11:59.715Z,40.16
2022-07-31T20:13:59.830Z,40.26
2022-07-31T20:15:59.878Z,40.32
2022-07-31T20:17:59.990Z,40.41
2022-07-31T20:20:14.939Z,40.53
2022-07-31T20:22:01.316Z,40.61
2022-07-31T20:24:00.434Z,40.67
2022-07-31T20:26:00.645Z,40.86
2022-07-31T20:28:00.673Z,40.95
2022-07-31T20:30:00.797Z,41.00
2022-07-31T20:32:00.957Z,41.05
2022-07-31T20:34:01.072Z,41.11
2022-07-31T20:36:01.317Z,41.14
2022-07-31T20:38:01.367Z,41.30
2022-07-31T20:40:01.507Z,41.36
2022-07-31T20:42:01.955Z,41.63
2022-07-31T20:44:01.763Z,41.70
2022-07-31T20:46:01.891Z,41.74
2022-07-31T20:48:02.038Z,41.82
2022-07-31T20:50:02.171Z,41.80
2022-07-31T20:52:02.449Z,41.91
2022-07-31T20:54:02.402Z,42.16
2022-07-31T20:56:02.571Z,42.17
2022-07-31T20:58:02.626Z,42.41
2022-07-31T21:00:02.808Z,42.43
2022-07-31T21:02:03.318Z,42.38
2022-07-31T21:04:03.056Z,42.39
2022-07-31T21:06:03.146Z,42.38
2022-07-31T21:08:03.286Z,42.42
2022-07-31T21:10:05.141Z,42.64
2022-07-31T21:12:03.815Z,42.77
2022-07-31T21:14:03.728Z,42.72
2022-07-31T21:16:03.899Z,42.86
2022-07-31T21:18:03.937Z,42.98
2022-07-31T21:20:04.119Z,42.94
2022-07-31T21:22:04.438Z,43.15
2022-07-31T21:24:04.290Z,43.12
2022-07-31T21:26:04.476Z,43.15
2022-07-31T21:28:04.596Z,43.27
2022-07-31T21:30:04.783Z,43.44
2022-07-31T21:32:05.067Z,43.40
2022-07-31T21:34:04.927Z,43.47
2022-07-31T21:36:05.096Z,43.56
2022-07-31T21:38:05.233Z,43.59
2022-07-31T21:40:07.507Z,43.69
2022-07-31T21:42:05.771Z,43.69
2022-07-31T21:44:05.672Z,43.68
2022-07-31T21:46:05.701Z,43.70
2022-07-31T21:48:05.877Z,43.70
2022-07-31T21:50:05.987Z,43.73
2022-07-31T21:52:06.535Z,43.74
2022-07-31T21:54:06.338Z,43.77
2022-07-31T21:56:06.421Z,43.80
2022-07-31T21:58:06.633Z,43.81
2022-07-31T22:00:09.464Z,43.90
2022-07-31T22:02:07.833Z,44.00
2022-07-31T22:04:06.911Z,44.07
2022-07-31T22:06:07.145Z,44.05
2022-07-31T22:08:07.199Z,44.09
2022-07-31T22:10:07.369Z,44.16
2022-07-31T22:12:07.575Z,44.19
2022-07-31T22:14:07.587Z,44.22
2022-07-31T22:16:07.699Z,44.24
2022-07-31T22:18:07.980Z,44.30
2022-07-31T22:20:07.975Z,44.38
2022-07-31T22:22:08.290Z,44.45
2022-07-31T22:24:08.258Z,44.51
2022-07-31T22:26:08.314Z,44.57
2022-07-31T22:28:08.633Z,44.61
2022-07-31T22:30:08.593Z,44.70
2022-07-31T22:32:08.938Z,44.76
2022-07-31T22:34:08.821Z,44.84
2022-07-31T22:36:09.099Z,44.93
2022-07-31T22:38:09.082Z,45.05
2022-07-31T22:40:09.165Z,45.34
2022-07-31T22:42:09.563Z,45.57
2022-07-31T22:44:15.009Z,45.78
2022-07-31T22:46:10.571Z,45.96
2022-07-31T22:48:09.774Z,46.13
2022-07-31T22:50:09.848Z,46.22
2022-07-31T22:52:10.012Z,46.50
2022-07-31T22:54:10.091Z,46.73
2022-07-31T22:56:10.229Z,46.73
2022-07-31T22:58:10.397Z,46.87
2022-07-31T23:00:10.455Z,46.89
2022-07-31T23:02:10.626Z,46.93
2022-07-31T23:04:10.795Z,46.91
2022-07-31T23:06:30.843Z,46.91
2022-07-31T23:08:12.281Z,46.94
2022-07-31T23:10:11.149Z,47.00
2022-07-31T23:12:11.387Z,47.04
2022-07-31T23:14:11.428Z,47.10
2022-07-31T23:16:11.516Z,47.12
2022-07-31T23:18:11.631Z,47.26
2022-07-31T23:20:11.932Z,47.42
2022-07-31T23:22:12.089Z,47.48
2022-07-31T23:24:12.050Z,47.64
2022-07-31T23:26:12.359Z,47.71
2022-07-31T23:28:12.290Z,47.78
2022-07-31T23:30:12.407Z,47.90
2022-07-31T23:32:12.597Z,47.93
2022-07-31T23:34:12.697Z,48.03
2022-07-31T23:36:14.821Z,48.07
2022-07-31T23:38:12.876Z,48.21
2022-07-31T23:40:13.197Z,48.22
2022-07-31T23:42:13.139Z,48.22
2022-07-31T23:44:13.292Z,48.45
2022-07-31T23:46:14.419Z,48.47
2022-07-31T23:48:15.054Z,48.44
2022-07-31T23:50:13.689Z,48.43
2022-07-31T23:52:13.773Z,48.46
2022-07-31T23:54:13.956Z,48.64
2022-07-31T23:56:14.346Z,48.73
2022-07-31T23:58:15.165Z,48.76
